Mahned, Mississippi
Current Conditions -  °F | °C
As of 5:53 PM on Monday 20 Oct 2014 (Local Time) from KHBG Reporting Station
Clear Clear  
Wind Chill: 71°   Ceiling: Unl
Heat Index: 71°   Visibility: 10mi
Dew Point: 52°   Wind: 5mph
Humidity: 51%   Direction: 350°N
Pressure: 30.01"   Gusts: NA
Location:  31.0667°N, 89.05°W
Report Text: KHBG 202253Z AUTO 35004KT 10SM CLR 22/11 A3001 RMK AO2 SLP162 T02170111
Loading
Personal Weather Stations






























Interactive Weather Map
Tropical Storm Tracking
New forecast layout! Learn more

10-Day Weather Forecast

Advertisements
Track Severe Weather on mobile